Time;durP1;ratioP1;P1;durP2;ratioP2;P2;SDS_P1;SDS_P2;PMS_P1;PMS_P2;Temp;Humidity;BMP_temperature;BMP_pressure;BME280_temperature;BME280_humidity;BME280_pressure;Samples;Min_cycle;Max_cycle;Signal;HPM_P1;HPM_P2
2022/07/05 00:00:59;;;;;;;3.75;2.83;;;13.20;99.90;;;;;;5110487;28;20101;-65
2022/07/05 00:03:26;;;;;;;3.30;2.88;;;13.20;99.90;;;;;;5083149;28;20039;-64
2022/07/05 00:05:52;;;;;;;4.25;3.22;;;13.20;99.90;;;;;;5111436;28;20051;-65
2022/07/05 00:08:18;;;;;;;4.97;4.45;;;13.20;99.90;;;;;;5088201;28;20035;-65
2022/07/05 00:10:43;;;;;;;4.03;3.70;;;13.20;99.90;;;;;;5081729;28;20487;-65
2022/07/05 00:13:09;;;;;;;6.43;3.63;;;13.10;99.90;;;;;;5083290;28;20040;-65
2022/07/05 00:15:35;;;;;;;4.80;3.70;;;13.10;99.90;;;;;;5083981;28;20040;-65
2022/07/05 00:18:01;;;;;;;7.97;3.70;;;13.10;99.90;;;;;;5084859;28;20059;-65
2022/07/05 00:20:27;;;;;;;4.40;4.00;;;13.10;99.90;;;;;;5089725;28;20101;-65
2022/07/05 00:22:52;;;;;;;5.72;4.47;;;13.10;99.90;;;;;;5089581;28;20036;-65
2022/07/05 00:25:18;;;;;;;5.43;4.57;;;13.10;99.90;;;;;;5086143;28;20048;-65
2022/07/05 00:27:44;;;;;;;5.55;4.10;;;13.00;99.90;;;;;;5088917;28;20047;-65
2022/07/05 00:30:10;;;;;;;4.30;3.90;;;13.00;99.90;;;;;;5089852;28;20050;-65
2022/07/05 00:32:37;;;;;;;4.70;3.45;;;12.90;99.90;;;;;;5091450;28;20093;-64
2022/07/05 00:35:04;;;;;;;5.20;3.78;;;12.90;99.90;;;;;;5089884;28;20039;-65
2022/07/05 00:37:30;;;;;;;5.88;3.67;;;12.90;99.90;;;;;;5091433;28;20046;-65
2022/07/05 00:39:56;;;;;;;4.38;3.97;;;12.90;99.90;;;;;;5089464;28;21357;-65
2022/07/05 00:42:22;;;;;;;4.75;3.70;;;12.90;99.90;;;;;;5087914;28;20097;-65
2022/07/05 00:44:47;;;;;;;5.13;3.58;;;12.80;99.90;;;;;;5092712;28;20048;-65
2022/07/05 00:47:13;;;;;;;4.40;3.65;;;12.80;99.90;;;;;;5090369;28;20109;-65
2022/07/05 00:49:40;;;;;;;3.60;3.30;;;12.80;99.90;;;;;;5073914;28;20083;-65
2022/07/05 00:52:06;;;;;;;3.78;3.47;;;12.80;99.90;;;;;;5091618;28;20051;-65
2022/07/05 00:54:35;;;;;;;4.75;3.35;;;12.80;99.90;;;;;;5090034;28;20105;-65
2022/07/05 00:57:01;;;;;;;4.60;3.42;;;12.70;99.90;;;;;;5089217;28;20032;-65
2022/07/05 00:59:28;;;;;;;4.35;3.20;;;12.70;99.90;;;;;;5087925;28;20475;-65
2022/07/05 01:01:54;;;;;;;5.10;3.00;;;12.70;99.90;;;;;;5091032;28;20050;-65
2022/07/05 01:04:20;;;;;;;5.05;3.58;;;12.60;99.90;;;;;;5092118;28;20040;-65
2022/07/05 01:06:48;;;;;;;5.20;3.85;;;12.60;99.90;;;;;;5091872;28;20040;-65
2022/07/05 01:09:16;;;;;;;4.50;3.88;;;12.60;99.90;;;;;;5090753;28;20047;-64
2022/07/05 01:11:43;;;;;;;4.65;3.60;;;12.60;99.90;;;;;;5088854;28;20040;-65
2022/07/05 01:14:13;;;;;;;4.28;3.80;;;12.60;99.90;;;;;;5091256;28;20519;-64
2022/07/05 01:16:38;;;;;;;6.18;3.75;;;12.60;99.90;;;;;;5074878;28;20538;-65
2022/07/05 01:19:09;;;;;;;6.40;3.88;;;12.60;99.90;;;;;;5088919;28;20177;-65
2022/07/05 01:21:40;;;;;;;6.55;3.55;;;12.60;99.90;;;;;;5089643;28;20048;-65
2022/07/05 01:24:10;;;;;;;10.50;3.97;;;12.60;99.90;;;;;;5090749;28;20129;-65
2022/07/05 01:26:37;;;;;;;5.05;4.13;;;12.50;99.90;;;;;;5085097;28;20532;-65
2022/07/05 01:29:03;;;;;;;4.82;3.80;;;12.50;99.90;;;;;;5089175;28;20044;-65
2022/07/05 01:31:29;;;;;;;5.95;3.95;;;12.50;99.90;;;;;;5086114;28;20039;-65
2022/07/05 01:33:55;;;;;;;5.10;3.75;;;12.50;99.90;;;;;;5089781;28;20063;-65
2022/07/05 01:36:21;;;;;;;4.90;3.85;;;12.50;99.90;;;;;;5088898;28;20044;-65
2022/07/05 01:38:47;;;;;;;6.50;3.92;;;12.50;99.90;;;;;;5089153;28;20088;-65
2022/07/05 01:41:13;;;;;;;4.63;4.22;;;12.50;99.90;;;;;;5086640;28;20036;-64
2022/07/05 01:43:39;;;;;;;4.38;3.70;;;12.50;99.90;;;;;;5120902;27;20048;-65
2022/07/05 01:46:05;;;;;;;5.85;3.97;;;12.40;99.90;;;;;;5122271;27;20050;-65
2022/07/05 01:48:34;;;;;;;7.43;4.30;;;12.40;99.90;;;;;;5085775;28;20048;-65
2022/07/05 01:51:05;;;;;;;5.20;4.10;;;12.40;99.90;;;;;;5089916;28;20032;-65
2022/07/05 01:53:32;;;;;;;5.18;3.83;;;12.40;99.90;;;;;;5086787;28;20122;-65
2022/07/05 01:56:02;;;;;;;4.82;4.13;;;12.40;99.90;;;;;;5085951;28;20474;-65
2022/07/05 01:58:29;;;;;;;5.05;4.05;;;12.40;99.90;;;;;;5086022;28;20119;-65
2022/07/05 02:00:56;;;;;;;4.90;4.40;;;12.30;99.90;;;;;;5087547;28;20379;-65
2022/07/05 02:03:22;;;;;;;4.30;3.90;;;12.30;99.90;;;;;;5088799;28;20064;-65
2022/07/05 02:05:49;;;;;;;5.43;3.90;;;12.30;99.90;;;;;;5086507;28;20036;-64
2022/07/05 02:08:16;;;;;;;4.47;4.03;;;12.30;99.90;;;;;;5089598;28;20114;-65
2022/07/05 02:10:43;;;;;;;5.10;4.07;;;12.30;99.90;;;;;;5089717;28;20040;-65
2022/07/05 02:13:09;;;;;;;5.60;5.00;;;12.30;99.90;;;;;;5088512;28;20040;-65
2022/07/05 02:15:38;;;;;;;5.03;4.53;;;12.20;99.90;;;;;;5085159;28;20048;-64
2022/07/05 02:18:04;;;;;;;6.90;4.80;;;12.20;99.90;;;;;;5086457;28;20040;-64
2022/07/05 02:20:31;;;;;;;6.78;5.28;;;12.20;99.90;;;;;;5084596;28;20039;-65
2022/07/05 02:22:57;;;;;;;5.15;4.65;;;12.10;99.90;;;;;;5070865;28;20043;-65
2022/07/05 02:25:23;;;;;;;6.30;4.90;;;12.10;99.90;;;;;;5085317;28;20052;-65
2022/07/05 02:27:50;;;;;;;5.00;4.30;;;12.20;99.90;;;;;;5085877;28;20059;-65
2022/07/05 02:30:15;;;;;;;4.80;4.20;;;12.10;99.90;;;;;;5085055;28;20048;-65
2022/07/05 02:32:42;;;;;;;5.25;4.75;;;12.10;99.90;;;;;;5089947;28;20035;-64
2022/07/05 02:35:09;;;;;;;6.95;4.80;;;12.10;99.90;;;;;;5115623;27;20089;-65
2022/07/05 02:37:36;;;;;;;5.10;4.60;;;12.10;99.90;;;;;;5082197;28;20035;-65
2022/07/05 02:40:02;;;;;;;6.00;5.30;;;12.00;99.90;;;;;;5086550;28;20084;-65
2022/07/05 02:42:28;;;;;;;6.65;4.68;;;12.10;99.90;;;;;;5090649;28;20032;-64
2022/07/05 02:44:53;;;;;;;5.90;4.25;;;12.10;99.90;;;;;;5086529;28;20043;-65
2022/07/05 02:47:19;;;;;;;5.35;4.88;;;12.00;99.90;;;;;;5087763;28;20085;-65
2022/07/05 02:49:44;;;;;;;4.88;4.38;;;12.00;99.90;;;;;;5090226;28;20123;-65
2022/07/05 02:52:10;;;;;;;5.78;4.75;;;12.00;99.90;;;;;;5089677;28;20461;-65
2022/07/05 02:54:36;;;;;;;4.80;4.30;;;12.00;99.90;;;;;;5087302;28;20414;-65
2022/07/05 02:57:02;;;;;;;4.82;4.00;;;12.00;99.90;;;;;;5089426;28;20206;-65
2022/07/05 02:59:27;;;;;;;5.07;4.20;;;11.90;99.90;;;;;;5088397;28;20046;-64
2022/07/05 03:01:53;;;;;;;4.65;4.25;;;11.90;99.90;;;;;;5086577;28;20105;-65
2022/07/05 03:04:19;;;;;;;5.20;4.70;;;11.80;99.90;;;;;;5091391;28;20031;-65
2022/07/05 03:06:44;;;;;;;8.30;4.00;;;11.80;99.90;;;;;;5089182;28;20442;-64
2022/07/05 03:09:10;;;;;;;4.22;3.83;;;11.80;99.90;;;;;;5084844;28;20054;-65
2022/07/05 03:11:36;;;;;;;4.60;4.20;;;11.80;99.90;;;;;;5088050;28;20036;-65
2022/07/05 03:14:02;;;;;;;5.68;4.05;;;11.80;99.90;;;;;;5086502;28;20682;-65
2022/07/05 03:16:29;;;;;;;4.68;4.20;;;11.80;99.90;;;;;;5117825;27;20048;-65
2022/07/05 03:18:54;;;;;;;4.95;4.43;;;11.80;99.90;;;;;;5089430;28;20040;-64
2022/07/05 03:21:20;;;;;;;5.32;4.70;;;11.80;99.90;;;;;;5085587;28;20039;-65
2022/07/05 03:23:46;;;;;;;4.93;4.45;;;11.80;99.90;;;;;;5122113;27;20116;-64
2022/07/05 03:26:11;;;;;;;5.63;4.80;;;11.80;99.90;;;;;;5089788;28;20176;-65
2022/07/05 03:28:37;;;;;;;5.07;4.57;;;11.80;99.90;;;;;;5086999;28;20052;-64
2022/07/05 03:31:03;;;;;;;5.03;4.20;;;11.80;99.90;;;;;;5085973;28;20092;-64
2022/07/05 03:33:28;;;;;;;5.32;4.57;;;11.80;99.90;;;;;;5084547;28;20101;-65
2022/07/05 03:35:54;;;;;;;5.00;4.50;;;11.80;99.90;;;;;;5086545;28;20070;-65
2022/07/05 03:38:19;;;;;;;7.32;4.90;;;11.80;99.90;;;;;;5087490;28;20093;-64
2022/07/05 03:40:45;;;;;;;6.95;5.38;;;11.80;99.90;;;;;;5085395;28;20071;-64
2022/07/05 03:43:11;;;;;;;5.32;4.82;;;11.90;99.90;;;;;;5122433;28;20090;-65
2022/07/05 03:45:36;;;;;;;6.28;5.30;;;11.90;99.90;;;;;;5089919;28;20041;-65
2022/07/05 03:48:02;;;;;;;7.50;5.30;;;12.00;99.90;;;;;;5122363;28;20035;-65
2022/07/05 03:50:28;;;;;;;7.13;5.50;;;12.00;99.90;;;;;;5088024;28;20483;-65
2022/07/05 03:52:53;;;;;;;8.27;5.60;;;12.10;99.90;;;;;;5091079;28;20119;-65
2022/07/05 03:55:19;;;;;;;5.70;5.18;;;12.10;99.90;;;;;;5091146;28;20376;-65
2022/07/05 03:57:45;;;;;;;6.10;5.47;;;12.20;99.90;;;;;;5091821;28;20039;-64
2022/07/05 04:00:12;;;;;;;5.68;5.00;;;12.30;99.90;;;;;;5090790;28;20127;-65
2022/07/05 04:02:37;;;;;;;7.13;5.18;;;12.40;99.90;;;;;;5092802;28;20493;-64
2022/07/05 04:05:04;;;;;;;5.93;5.40;;;12.40;99.90;;;;;;5091846;28;20040;-65
2022/07/05 04:07:30;;;;;;;7.00;5.20;;;12.60;99.90;;;;;;5091038;28;20417;-65
2022/07/05 04:09:55;;;;;;;9.15;6.15;;;12.70;99.90;;;;;;5090335;28;20044;-65
2022/07/05 04:12:21;;;;;;;8.88;6.55;;;12.80;99.90;;;;;;5085859;28;20039;-65
2022/07/05 04:14:47;;;;;;;6.68;5.97;;;12.90;99.90;;;;;;5118499;27;20047;-64
2022/07/05 04:17:13;;;;;;;5.95;5.35;;;12.90;99.90;;;;;;5084511;28;20032;-65
2022/07/05 04:19:38;;;;;;;6.72;5.28;;;13.00;99.90;;;;;;5109584;27;20426;-64
2022/07/05 04:22:04;;;;;;;6.38;5.65;;;13.10;99.90;;;;;;5086784;28;20174;-64
2022/07/05 04:24:30;;;;;;;6.43;5.82;;;13.20;99.90;;;;;;5091083;28;20036;-65
2022/07/05 04:26:55;;;;;;;6.97;5.82;;;13.40;99.90;;;;;;5091728;28;20048;-64
2022/07/05 04:29:21;;;;;;;5.97;5.40;;;13.40;99.90;;;;;;5089128;28;20127;-64
2022/07/05 04:31:47;;;;;;;7.80;6.30;;;13.50;99.90;;;;;;5090135;28;20039;-64
2022/07/05 04:34:12;;;;;;;7.47;5.75;;;13.50;99.90;;;;;;5089178;28;20032;-64
2022/07/05 04:36:40;;;;;;;6.80;5.57;;;13.60;99.90;;;;;;5093016;28;20123;-65
2022/07/05 04:39:06;;;;;;;7.30;6.15;;;13.60;99.90;;;;;;5089947;28;20051;-65
2022/07/05 04:41:32;;;;;;;7.88;6.35;;;13.60;99.90;;;;;;5074137;28;20044;-64
2022/07/05 04:43:58;;;;;;;6.72;5.63;;;13.70;99.90;;;;;;5091852;28;20398;-64
2022/07/05 04:46:23;;;;;;;6.07;5.03;;;13.70;99.90;;;;;;5090586;28;20048;-64
2022/07/05 04:48:49;;;;;;;6.78;5.82;;;13.80;99.90;;;;;;5091639;28;20535;-65
2022/07/05 04:51:15;;;;;;;7.00;5.88;;;13.80;99.90;;;;;;5093061;28;20060;-66
2022/07/05 04:53:41;;;;;;;6.25;5.65;;;13.90;99.90;;;;;;5091500;28;20036;-65
2022/07/05 04:56:06;;;;;;;6.60;6.00;;;13.90;99.90;;;;;;5092048;28;20032;-64
2022/07/05 04:58:32;;;;;;;6.70;5.70;;;14.10;99.90;;;;;;5090855;28;20047;-65
2022/07/05 05:00:58;;;;;;;6.97;6.32;;;14.20;99.90;;;;;;5090275;28;20078;-66
2022/07/05 05:03:23;;;;;;;7.07;6.30;;;14.30;99.90;;;;;;5089604;28;20420;-65
2022/07/05 05:05:49;;;;;;;7.07;5.95;;;14.30;99.90;;;;;;5090931;28;20497;-66
2022/07/05 05:08:14;;;;;;;7.68;6.40;;;14.30;99.90;;;;;;5124887;27;20044;-66
2022/07/05 05:10:40;;;;;;;9.13;5.80;;;14.40;99.90;;;;;;5124607;27;20036;-66
2022/07/05 05:13:06;;;;;;;7.28;6.30;;;14.60;99.90;;;;;;5090642;28;20067;-66
2022/07/05 05:15:31;;;;;;;8.98;6.15;;;14.70;99.90;;;;;;5088831;28;20086;-67
2022/07/05 05:17:57;;;;;;;6.85;6.05;;;14.90;99.90;;;;;;5089199;28;20031;-66
2022/07/05 05:20:23;;;;;;;7.97;6.30;;;14.90;99.90;;;;;;5090416;28;20436;-66
2022/07/05 05:22:48;;;;;;;7.13;5.63;;;15.00;99.90;;;;;;5088721;28;20035;-66
2022/07/05 05:25:15;;;;;;;7.22;6.03;;;15.00;99.90;;;;;;5091601;28;20039;-66
2022/07/05 05:27:44;;;;;;;9.50;5.85;;;15.10;99.90;;;;;;5090834;28;20135;-66
2022/07/05 05:30:11;;;;;;;6.97;5.95;;;15.10;99.90;;;;;;5090590;28;20519;-66
2022/07/05 05:32:37;;;;;;;8.63;6.00;;;15.30;99.90;;;;;;5091787;28;20040;-66
2022/07/05 05:35:03;;;;;;;8.30;6.63;;;15.40;99.90;;;;;;5090494;28;20032;-66
2022/07/05 05:37:29;;;;;;;8.00;6.22;;;15.40;99.90;;;;;;5120765;27;20040;-66
2022/07/05 05:39:54;;;;;;;9.52;6.03;;;15.40;99.90;;;;;;5089967;28;20085;-65
2022/07/05 05:42:20;;;;;;;7.35;6.30;;;15.50;99.90;;;;;;5090207;28;20121;-66
2022/07/05 05:44:46;;;;;;;7.10;5.90;;;15.60;99.90;;;;;;5089690;28;20044;-66
2022/07/05 05:47:11;;;;;;;6.57;5.82;;;15.70;99.90;;;;;;5088964;28;20036;-66
2022/07/05 05:49:37;;;;;;;7.50;5.13;;;15.80;99.90;;;;;;5072536;28;20059;-66
2022/07/05 05:52:03;;;;;;;6.18;5.05;;;16.00;99.90;;;;;;5089712;28;20047;-66
2022/07/05 05:54:28;;;;;;;6.90;5.25;;;16.20;99.90;;;;;;5089656;28;20066;-66
2022/07/05 05:56:54;;;;;;;5.78;5.20;;;16.30;99.90;;;;;;5090147;28;20071;-66
2022/07/05 05:59:20;;;;;;;7.13;4.95;;;16.50;99.90;;;;;;5090890;28;20043;-67
2022/07/05 06:01:45;;;;;;;6.22;5.35;;;16.50;99.90;;;;;;5090326;28;20040;-66
2022/07/05 06:04:11;;;;;;;7.85;5.88;;;16.60;99.90;;;;;;5089275;28;20036;-66
2022/07/05 06:06:37;;;;;;;6.25;5.38;;;16.70;99.90;;;;;;5090993;28;20036;-66
2022/07/05 06:09:02;;;;;;;9.73;5.97;;;16.80;99.90;;;;;;5090633;28;20411;-67
2022/07/05 06:11:28;;;;;;;5.28;4.70;;;16.90;99.90;;;;;;5088250;28;20042;-67
2022/07/05 06:13:54;;;;;;;7.47;4.75;;;17.00;99.90;;;;;;5123348;27;20036;-66
2022/07/05 06:16:19;;;;;;;10.57;4.00;;;17.10;99.90;;;;;;5117109;27;20094;-67
2022/07/05 06:18:45;;;;;;;6.07;4.03;;;17.10;99.90;;;;;;5089467;28;20073;-66
2022/07/05 06:21:10;;;;;;;5.47;3.60;;;17.10;99.90;;;;;;5088738;28;20048;-67
2022/07/05 06:23:36;;;;;;;7.85;4.00;;;17.10;99.90;;;;;;5089777;28;20039;-67
2022/07/05 06:26:02;;;;;;;6.32;4.00;;;17.30;99.90;;;;;;5089125;28;20067;-66
2022/07/05 06:28:27;;;;;;;8.32;4.00;;;17.30;99.90;;;;;;5089268;28;20387;-67
2022/07/05 06:30:53;;;;;;;5.90;3.95;;;17.30;99.90;;;;;;5089159;28;20372;-66
2022/07/05 06:33:20;;;;;;;5.63;4.55;;;17.30;99.90;;;;;;5089788;28;20060;-66
2022/07/05 06:35:45;;;;;;;3.60;2.97;;;17.30;99.90;;;;;;5123192;27;20036;-67
2022/07/05 06:38:11;;;;;;;4.72;2.22;;;17.30;99.90;;;;;;5089603;28;20089;-67
2022/07/05 06:40:42;;;;;;;3.55;2.00;;;17.40;99.90;;;;;;5089480;28;20040;-67
2022/07/05 06:43:10;;;;;;;2.90;1.80;;;17.60;99.90;;;;;;5088924;28;20040;-67
2022/07/05 06:45:36;;;;;;;4.47;1.98;;;17.70;99.90;;;;;;5089271;28;20085;-67
2022/07/05 06:48:03;;;;;;;3.53;1.80;;;17.80;99.90;;;;;;5088937;28;20417;-67
2022/07/05 06:50:31;;;;;;;3.67;1.65;;;18.00;99.90;;;;;;5089015;28;20036;-67
2022/07/05 06:52:57;;;;;;;4.15;1.10;;;18.10;99.90;;;;;;5078214;28;20040;-67
2022/07/05 06:55:24;;;;;;;4.30;1.13;;;18.20;99.90;;;;;;5088956;28;20035;-66
2022/07/05 06:58:00;;;;;;;4.22;1.25;;;18.20;99.90;;;;;;5071891;28;20043;-67
2022/07/05 07:00:27;;;;;;;1.77;1.10;;;18.30;99.90;;;;;;5083023;28;20054;-67
2022/07/05 07:02:52;;;;;;;2.72;1.00;;;18.20;99.90;;;;;;5089285;28;20028;-67
2022/07/05 07:05:18;;;;;;;2.85;1.10;;;18.20;99.90;;;;;;5088742;28;20097;-67
2022/07/05 07:10:28;;;;;;;2.88;0.95;;;18.00;99.90;;;;;;5088634;28;20170;-67
2022/07/05 07:12:54;;;;;;;4.63;1.05;;;17.90;99.90;;;;;;5090057;28;20119;-66
2022/07/05 07:15:19;;;;;;;2.25;0.95;;;17.80;99.90;;;;;;5089922;28;20421;-67
2022/07/05 07:17:45;;;;;;;2.60;1.00;;;17.80;99.90;;;;;;5090242;28;20051;-66
2022/07/05 07:20:11;;;;;;;3.00;1.13;;;17.80;99.90;;;;;;5071611;28;20056;-66
2022/07/05 07:22:36;;;;;;;5.80;1.38;;;17.90;99.90;;;;;;5088428;28;20127;-67
2022/07/05 07:25:04;;;;;;;2.92;0.80;;;18.30;99.90;;;;;;5088615;28;20473;-67
2022/07/05 07:27:31;;;;;;;2.00;0.80;;;18.50;99.90;;;;;;5088175;28;20047;-67
2022/07/05 07:29:56;;;;;;;3.10;0.93;;;18.50;99.90;;;;;;5088496;28;20051;-67
2022/07/05 07:32:22;;;;;;;2.58;0.90;;;18.50;99.90;;;;;;5088366;28;20057;-67
2022/07/05 07:34:47;;;;;;;3.63;0.98;;;18.50;99.90;;;;;;5088343;28;20475;-67
2022/07/05 07:37:13;;;;;;;3.13;0.90;;;18.50;99.90;;;;;;5088424;28;20072;-67
2022/07/05 07:39:40;;;;;;;2.28;0.80;;;18.40;99.90;;;;;;5122698;28;20394;-67
2022/07/05 07:42:07;;;;;;;3.45;0.88;;;18.40;99.90;;;;;;5087076;28;20126;-67
2022/07/05 07:44:33;;;;;;;2.65;1.27;;;18.50;99.90;;;;;;5088456;28;20415;-67
2022/07/05 07:46:59;;;;;;;4.03;1.15;;;18.60;99.90;;;;;;5122452;28;20032;-67
2022/07/05 07:49:24;;;;;;;2.70;0.82;;;18.80;99.90;;;;;;5088169;28;20075;-66
2022/07/05 07:51:51;;;;;;;1.75;0.60;;;19.00;99.90;;;;;;5122214;28;20032;-67
2022/07/05 07:54:17;;;;;;;1.90;0.63;;;18.90;99.90;;;;;;5122695;28;20098;-66
2022/07/05 07:56:43;;;;;;;4.68;0.73;;;18.80;99.90;;;;;;5121218;28;20486;-67
2022/07/05 07:59:09;;;;;;;4.72;1.30;;;18.70;99.90;;;;;;5088411;28;20043;-67
2022/07/05 08:01:35;;;;;;;1.60;0.70;;;18.90;99.90;;;;;;5071385;28;20043;-67
2022/07/05 08:04:00;;;;;;;2.35;0.85;;;19.20;99.90;;;;;;5088179;28;20115;-67
2022/07/05 08:06:26;;;;;;;1.80;0.80;;;19.30;99.90;;;;;;5088004;28;20122;-67
2022/07/05 08:08:51;;;;;;;1.25;0.70;;;19.40;99.90;;;;;;5122129;28;20384;-67
2022/07/05 08:11:17;;;;;;;2.70;0.70;;;19.30;99.90;;;;;;5089553;28;20040;-67
2022/07/05 08:13:43;;;;;;;4.13;0.90;;;19.30;99.90;;;;;;5089568;28;20483;-67
2022/07/05 08:16:10;;;;;;;2.58;0.77;;;19.20;99.90;;;;;;5088107;28;20048;-67
2022/07/05 08:21:32;;;;;;;3.92;0.95;;;18.80;99.90;;;;;;5088192;28;20459;-67
2022/07/05 08:24:09;;;;;;;3.10;0.70;;;18.70;99.90;;;;;;5088436;28;20489;-67
2022/07/05 08:26:35;;;;;;;4.85;1.00;;;18.40;99.90;;;;;;5089105;28;20127;-67
2022/07/05 08:29:03;;;;;;;4.88;0.80;;;18.40;99.90;;;;;;5087939;28;20048;-67
2022/07/05 08:31:32;;;;;;;2.90;0.90;;;18.70;99.90;;;;;;5086919;28;20509;-67
2022/07/05 08:33:58;;;;;;;3.50;1.02;;;19.10;99.90;;;;;;5087713;28;20100;-67
2022/07/05 08:36:24;;;;;;;5.18;0.90;;;19.50;99.90;;;;;;5089471;28;20044;-67
2022/07/05 08:38:50;;;;;;;3.95;0.65;;;19.60;99.90;;;;;;5089483;28;20055;-66
2022/07/05 08:41:20;;;;;;;1.38;0.60;;;19.30;99.90;;;;;;5092051;28;20039;-67
2022/07/05 08:43:48;;;;;;;2.72;0.75;;;19.10;99.90;;;;;;5090191;28;20062;-67
2022/07/05 08:46:15;;;;;;;3.20;0.98;;;19.10;99.90;;;;;;5091323;28;20119;-67
2022/07/05 08:48:43;;;;;;;1.65;0.68;;;19.20;99.90;;;;;;5091549;28;20147;-67
2022/07/05 08:51:14;;;;;;;3.63;0.85;;;19.40;99.90;;;;;;5073645;28;20041;-67
2022/07/05 08:53:41;;;;;;;4.70;1.00;;;19.50;99.90;;;;;;5084667;28;20083;-67
2022/07/05 08:56:11;;;;;;;2.35;0.75;;;19.20;99.90;;;;;;5091092;28;20036;-67
2022/07/05 08:58:37;;;;;;;2.75;0.80;;;19.00;99.90;;;;;;5091175;28;20504;-67
2022/07/05 09:01:04;;;;;;;8.02;0.90;;;19.10;99.90;;;;;;5125152;27;20043;-66
2022/07/05 09:03:33;;;;;;;4.32;0.98;;;19.30;99.90;;;;;;5092428;28;20024;-67
2022/07/05 09:06:01;;;;;;;5.00;0.80;;;19.70;99.90;;;;;;5092198;28;20077;-66
2022/07/05 09:08:29;;;;;;;2.60;0.75;;;19.60;99.90;;;;;;5092281;28;20115;-67
2022/07/05 09:10:55;;;;;;;4.40;1.02;;;19.40;99.90;;;;;;5073517;28;20136;-67
2022/07/05 09:13:20;;;;;;;7.03;0.70;;;19.20;99.90;;;;;;5090898;28;20122;-67
2022/07/05 09:15:46;;;;;;;6.03;0.82;;;19.00;99.90;;;;;;5092286;28;20032;-67
2022/07/05 09:18:12;;;;;;;2.45;0.90;;;18.80;99.90;;;;;;5090887;28;20038;-67
2022/07/05 09:20:37;;;;;;;2.42;0.80;;;18.60;99.90;;;;;;5092221;28;20032;-66
2022/07/05 09:23:03;;;;;;;4.55;0.95;;;18.60;99.90;;;;;;5090817;28;20040;-66
2022/07/05 09:25:30;;;;;;;3.38;0.70;;;19.00;99.90;;;;;;5090584;28;20044;-67
2022/07/05 09:27:58;;;;;;;3.15;0.90;;;19.20;99.90;;;;;;5090429;28;20502;-66
2022/07/05 09:30:26;;;;;;;3.65;0.88;;;19.30;99.90;;;;;;5090606;28;20044;-67
2022/07/05 09:33:02;;;;;;;3.17;0.82;;;19.30;99.90;;;;;;5091977;28;20032;-67
2022/07/05 09:35:28;;;;;;;2.72;0.85;;;19.40;99.90;;;;;;5073730;28;20028;-67
2022/07/05 09:37:54;;;;;;;3.08;0.82;;;19.20;99.90;;;;;;5090818;28;20040;-67
2022/07/05 09:40:20;;;;;;;3.63;0.85;;;19.10;99.90;;;;;;5090323;28;20105;-67
2022/07/05 09:42:45;;;;;;;3.83;0.70;;;18.90;99.90;;;;;;5090375;28;20044;-66
2022/07/05 09:45:11;;;;;;;2.33;0.95;;;19.00;99.90;;;;;;5090214;28;20044;-67
2022/07/05 09:47:37;;;;;;;4.53;0.80;;;19.00;99.90;;;;;;5090310;28;20040;-67
2022/07/05 09:50:06;;;;;;;2.90;0.80;;;19.00;99.90;;;;;;5091294;28;20062;-67
2022/07/05 09:52:38;;;;;;;1.70;0.70;;;19.00;99.90;;;;;;5089896;28;20040;-67
2022/07/05 09:55:09;;;;;;;3.20;0.80;;;18.90;99.90;;;;;;5073277;28;20450;-67
2022/07/05 09:57:38;;;;;;;4.90;0.90;;;18.80;99.90;;;;;;5090016;28;20042;-67
2022/07/05 10:00:06;;;;;;;2.80;0.80;;;18.90;99.90;;;;;;5090127;28;20547;-67
2022/07/05 10:02:39;;;;;;;2.05;0.90;;;19.00;99.90;;;;;;5090229;28;20181;-67
2022/07/05 10:05:11;;;;;;;6.22;0.90;;;18.90;99.90;;;;;;5090091;28;20430;-67
2022/07/05 10:07:40;;;;;;;1.98;0.70;;;18.80;99.90;;;;;;5090967;28;20035;-67
2022/07/05 10:10:07;;;;;;;2.22;0.90;;;18.80;99.90;;;;;;5089741;28;20055;-67
2022/07/05 10:12:36;;;;;;;5.03;1.02;;;18.80;99.90;;;;;;5088612;28;20039;-67
2022/07/05 10:15:02;;;;;;;6.03;1.10;;;18.60;99.90;;;;;;5090023;28;20051;-67
2022/07/05 10:17:32;;;;;;;3.72;0.93;;;18.60;99.90;;;;;;5089825;28;20044;-66
2022/07/05 10:19:59;;;;;;;2.83;1.00;;;18.70;99.90;;;;;;5088481;28;20507;-67
2022/07/05 10:22:27;;;;;;;3.85;0.88;;;18.80;99.90;;;;;;5123775;27;20043;-67
2022/07/05 10:24:54;;;;;;;5.50;1.25;;;18.70;99.90;;;;;;5089737;28;20039;-67
2022/07/05 10:27:22;;;;;;;2.78;1.10;;;18.70;99.90;;;;;;5071145;28;20110;-67
2022/07/05 10:29:49;;;;;;;2.17;0.80;;;18.60;99.90;;;;;;5089330;28;20415;-67
2022/07/05 10:32:17;;;;;;;5.32;0.88;;;18.50;99.90;;;;;;5090741;28;20082;-67
2022/07/05 10:34:46;;;;;;;3.58;0.70;;;18.40;99.90;;;;;;5089288;28;20097;-67
2022/07/05 10:37:12;;;;;;;4.75;0.90;;;18.30;99.90;;;;;;5089591;28;20044;-67
2022/07/05 10:39:37;;;;;;;5.72;1.00;;;18.40;99.90;;;;;;5089151;28;20059;-67
2022/07/05 10:42:06;;;;;;;4.53;0.82;;;18.60;99.90;;;;;;5089254;28;20399;-66
2022/07/05 10:44:34;;;;;;;4.93;0.93;;;18.80;99.90;;;;;;5089295;28;20115;-67
2022/07/05 10:47:13;;;;;;;2.50;0.75;;;19.20;99.90;;;;;;5071156;28;20087;-67
2022/07/05 10:49:40;;;;;;;4.95;1.00;;;19.40;99.90;;;;;;5090316;28;20139;-67
2022/07/05 10:52:24;;;;;;;3.30;1.05;;;19.50;99.90;;;;;;5090441;28;20052;-67
2022/07/05 10:55:19;;;;;;;3.58;0.90;;;19.40;99.90;;;;;;5083093;28;20059;-67
2022/07/05 10:58:16;;;;;;;4.80;1.63;;;19.60;99.90;;;;;;5071971;28;20039;-67
2022/07/05 11:00:43;;;;;;;4.05;0.80;;;19.60;99.90;;;;;;5076689;28;20032;-67
2022/07/05 11:03:36;;;;;;;1.83;1.00;;;19.70;99.90;;;;;;5088964;28;20043;-67
2022/07/05 11:06:04;;;;;;;4.07;0.80;;;19.90;99.90;;;;;;5088925;28;20489;-66
2022/07/05 11:08:32;;;;;;;3.83;1.02;;;19.90;99.90;;;;;;5088764;28;20036;-67
2022/07/05 11:11:14;;;;;;;4.50;0.80;;;20.00;99.90;;;;;;5088820;28;20093;-67
2022/07/05 11:13:43;;;;;;;5.32;0.73;;;19.80;99.90;;;;;;5123047;27;20042;-67
2022/07/05 11:16:25;;;;;;;6.18;0.90;;;19.60;99.90;;;;;;5088353;28;20036;-67
2022/07/05 11:18:52;;;;;;;3.90;0.80;;;19.30;99.90;;;;;;5071336;28;20541;-67
2022/07/05 11:21:20;;;;;;;2.90;0.68;;;19.20;99.90;;;;;;5088919;28;20401;-67
2022/07/05 11:23:46;;;;;;;2.22;0.70;;;19.10;99.90;;;;;;5088671;28;20104;-67
2022/07/05 11:26:15;;;;;;;2.92;0.90;;;19.10;99.90;;;;;;5088329;28;20040;-67
2022/07/05 11:28:48;;;;;;;3.88;1.10;;;19.20;99.90;;;;;;5088464;28;20043;-66
2022/07/05 11:31:42;;;;;;;3.60;0.88;;;19.30;99.90;;;;;;5088684;28;20048;-67
2022/07/05 11:34:14;;;;;;;2.90;1.00;;;19.40;99.90;;;;;;5088429;28;20044;-67
2022/07/05 11:36:40;;;;;;;4.07;0.80;;;19.90;99.90;;;;;;5071758;28;20028;-67
2022/07/05 11:39:16;;;;;;;2.65;0.85;;;20.20;99.90;;;;;;5122182;28;20429;-67
2022/07/05 11:41:47;;;;;;;4.07;0.88;;;20.10;99.90;;;;;;5088706;28;20495;-67
2022/07/05 11:44:14;;;;;;;4.65;0.90;;;20.30;99.90;;;;;;5088327;28;20123;-67
2022/07/05 11:46:43;;;;;;;2.90;0.90;;;20.60;99.90;;;;;;5088464;28;20044;-66
2022/07/05 11:49:09;;;;;;;3.80;0.90;;;20.80;99.90;;;;;;5088099;28;20070;-67
2022/07/05 11:51:35;;;;;;;3.97;0.80;;;21.00;99.90;;;;;;5088192;28;20118;-66
2022/07/05 11:54:01;;;;;;;2.17;0.60;;;20.90;99.80;;;;;;5088499;28;20040;-67
2022/07/05 11:56:28;;;;;;;3.25;0.60;;;20.90;99.80;;;;;;5071464;28;20036;-67
2022/07/05 11:58:53;;;;;;;2.03;0.60;;;21.10;99.90;;;;;;5122366;28;20058;-67
2022/07/05 12:01:19;;;;;;;2.10;0.50;;;20.90;99.30;;;;;;5088072;28;20036;-67
2022/07/05 12:03:55;;;;;;;4.50;0.93;;;20.90;98.00;;;;;;5088314;28;20097;-67
2022/07/05 12:06:23;;;;;;;2.40;0.50;;;20.80;97.70;;;;;;5088125;28;20051;-67
2022/07/05 12:09:02;;;;;;;4.07;0.70;;;20.70;97.80;;;;;;5088094;28;20048;-67
2022/07/05 12:14:20;;;;;;;4.07;0.60;;;20.40;96.30;;;;;;5090827;28;20048;-67
2022/07/05 12:16:45;;;;;;;1.25;0.50;;;20.30;96.70;;;;;;5091985;28;20036;-67
2022/07/05 12:19:11;;;;;;;2.30;0.50;;;20.30;96.60;;;;;;5075326;28;20108;-67
2022/07/05 12:21:36;;;;;;;2.70;0.50;;;20.40;97.40;;;;;;5091786;28;20046;-67
2022/07/05 12:24:03;;;;;;;2.75;0.82;;;20.30;96.90;;;;;;5093471;28;20044;-67
2022/07/05 12:26:30;;;;;;;0.55;0.30;;;20.40;96.80;;;;;;5091486;28;20048;-67
2022/07/05 12:28:56;;;;;;;3.10;0.70;;;20.50;97.30;;;;;;5091771;28;20052;-67
2022/07/05 12:31:23;;;;;;;0.40;0.40;;;20.70;97.20;;;;;;5091524;28;20140;-67
2022/07/05 12:33:50;;;;;;;1.95;0.43;;;20.70;96.50;;;;;;5091797;28;20032;-66
2022/07/05 12:36:18;;;;;;;2.58;0.60;;;20.50;97.20;;;;;;5091729;28;20047;-66
2022/07/05 12:38:44;;;;;;;3.28;0.50;;;20.60;97.40;;;;;;5091499;28;20036;-66
2022/07/05 12:41:11;;;;;;;2.58;0.40;;;20.50;97.30;;;;;;5091609;28;20032;-67
2022/07/05 12:43:50;;;;;;;1.90;0.90;;;20.50;97.40;;;;;;5091551;28;20383;-67
2022/07/05 12:46:16;;;;;;;1.67;0.63;;;20.40;97.60;;;;;;5091779;28;20040;-67
2022/07/05 12:48:42;;;;;;;1.45;0.40;;;20.30;98.00;;;;;;5092671;28;20045;-67
2022/07/05 12:51:09;;;;;;;3.35;1.02;;;20.20;97.50;;;;;;5091713;28;20036;-67
2022/07/05 12:59:11;;;;;;;2.35;0.60;;;20.60;98.70;;;;;;5091181;28;20055;-67
2022/07/05 13:01:42;;;;;;;2.28;0.63;;;20.50;97.80;;;;;;5091499;28;20054;-67